sensor_id;sensor_type;location;lat;lon;timestamp;P1;durP1;ratioP1;P2;durP2;ratioP2
9040;SDS011;4555;49.918;7.012;2022-07-25T00:00:29;0.93;;;0.90;;
9040;SDS011;4555;49.918;7.012;2022-07-25T00:02:57;1.33;;;1.30;;
9040;SDS011;4555;49.918;7.012;2022-07-25T00:05:23;1.60;;;1.07;;
9040;SDS011;4555;49.918;7.012;2022-07-25T00:07:49;1.27;;;1.17;;
9040;SDS011;4555;49.918;7.012;2022-07-25T00:10:14;1.10;;;1.10;;
9040;SDS011;4555;49.918;7.012;2022-07-25T00:12:40;1.50;;;1.47;;
9040;SDS011;4555;49.918;7.012;2022-07-25T00:15:06;1.57;;;1.47;;
9040;SDS011;4555;49.918;7.012;2022-07-25T00:17:33;1.47;;;1.37;;
9040;SDS011;4555;49.918;7.012;2022-07-25T00:19:59;1.10;;;1.10;;
9040;SDS011;4555;49.918;7.012;2022-07-25T00:22:25;1.20;;;1.20;;
9040;SDS011;4555;49.918;7.012;2022-07-25T00:24:51;1.83;;;1.73;;
9040;SDS011;4555;49.918;7.012;2022-07-25T00:27:16;2.20;;;2.00;;
9040;SDS011;4555;49.918;7.012;2022-07-25T00:29:42;1.30;;;1.20;;
9040;SDS011;4555;49.918;7.012;2022-07-25T00:32:07;1.23;;;1.23;;
9040;SDS011;4555;49.918;7.012;2022-07-25T00:34:33;1.43;;;1.20;;
9040;SDS011;4555;49.918;7.012;2022-07-25T00:36:59;1.60;;;1.53;;
9040;SDS011;4555;49.918;7.012;2022-07-25T00:39:25;1.70;;;1.60;;
9040;SDS011;4555;49.918;7.012;2022-07-25T00:41:50;1.10;;;1.10;;
9040;SDS011;4555;49.918;7.012;2022-07-25T00:44:26;2.13;;;1.80;;
9040;SDS011;4555;49.918;7.012;2022-07-25T00:46:54;1.47;;;1.37;;
9040;SDS011;4555;49.918;7.012;2022-07-25T00:49:20;1.87;;;1.67;;
9040;SDS011;4555;49.918;7.012;2022-07-25T00:51:46;1.40;;;1.30;;
9040;SDS011;4555;49.918;7.012;2022-07-25T00:54:12;1.50;;;1.40;;
9040;SDS011;4555;49.918;7.012;2022-07-25T00:56:39;1.23;;;1.03;;
9040;SDS011;4555;49.918;7.012;2022-07-25T00:59:05;1.23;;;1.23;;
9040;SDS011;4555;49.918;7.012;2022-07-25T01:01:31;1.47;;;1.40;;
9040;SDS011;4555;49.918;7.012;2022-07-25T01:03:57;1.43;;;1.33;;
9040;SDS011;4555;49.918;7.012;2022-07-25T01:06:22;1.23;;;1.13;;
9040;SDS011;4555;49.918;7.012;2022-07-25T01:08:49;1.10;;;1.10;;
9040;SDS011;4555;49.918;7.012;2022-07-25T01:11:15;1.30;;;1.30;;
9040;SDS011;4555;49.918;7.012;2022-07-25T01:13:41;1.53;;;1.43;;
9040;SDS011;4555;49.918;7.012;2022-07-25T01:16:06;2.30;;;1.20;;
9040;SDS011;4555;49.918;7.012;2022-07-25T01:18:32;1.07;;;1.07;;
9040;SDS011;4555;49.918;7.012;2022-07-25T01:21:02;1.57;;;1.47;;
9040;SDS011;4555;49.918;7.012;2022-07-25T01:23:28;1.67;;;1.57;;
9040;SDS011;4555;49.918;7.012;2022-07-25T01:25:57;1.37;;;1.27;;
9040;SDS011;4555;49.918;7.012;2022-07-25T01:28:23;1.63;;;1.50;;
9040;SDS011;4555;49.918;7.012;2022-07-25T01:30:48;1.90;;;1.80;;
9040;SDS011;4555;49.918;7.012;2022-07-25T01:33:17;1.10;;;1.10;;
9040;SDS011;4555;49.918;7.012;2022-07-25T01:35:44;1.00;;;1.00;;
9040;SDS011;4555;49.918;7.012;2022-07-25T01:38:10;1.67;;;1.57;;
9040;SDS011;4555;49.918;7.012;2022-07-25T01:40:36;1.03;;;1.03;;
9040;SDS011;4555;49.918;7.012;2022-07-25T01:43:02;0.83;;;0.83;;
9040;SDS011;4555;49.918;7.012;2022-07-25T01:45:28;1.20;;;1.20;;
9040;SDS011;4555;49.918;7.012;2022-07-25T01:47:54;1.77;;;1.67;;
9040;SDS011;4555;49.918;7.012;2022-07-25T01:50:19;1.70;;;1.60;;
9040;SDS011;4555;49.918;7.012;2022-07-25T01:52:45;1.10;;;1.10;;
9040;SDS011;4555;49.918;7.012;2022-07-25T01:55:11;1.10;;;1.10;;
9040;SDS011;4555;49.918;7.012;2022-07-25T01:57:36;1.57;;;1.50;;
9040;SDS011;4555;49.918;7.012;2022-07-25T02:00:04;1.00;;;1.00;;
9040;SDS011;4555;49.918;7.012;2022-07-25T02:02:37;1.43;;;1.37;;
9040;SDS011;4555;49.918;7.012;2022-07-25T02:05:03;1.57;;;1.47;;
9040;SDS011;4555;49.918;7.012;2022-07-25T02:07:29;2.17;;;1.87;;
9040;SDS011;4555;49.918;7.012;2022-07-25T02:09:54;1.27;;;1.27;;
9040;SDS011;4555;49.918;7.012;2022-07-25T02:12:20;1.50;;;1.40;;
9040;SDS011;4555;49.918;7.012;2022-07-25T02:14:45;1.37;;;1.37;;
9040;SDS011;4555;49.918;7.012;2022-07-25T02:17:11;1.27;;;1.27;;
9040;SDS011;4555;49.918;7.012;2022-07-25T02:19:37;1.60;;;1.43;;
9040;SDS011;4555;49.918;7.012;2022-07-25T02:22:02;1.10;;;1.10;;
9040;SDS011;4555;49.918;7.012;2022-07-25T02:24:28;2.30;;;1.37;;
9040;SDS011;4555;49.918;7.012;2022-07-25T02:26:54;0.83;;;0.83;;
9040;SDS011;4555;49.918;7.012;2022-07-25T02:29:19;3.27;;;1.80;;
9040;SDS011;4555;49.918;7.012;2022-07-25T02:31:45;1.50;;;1.40;;
9040;SDS011;4555;49.918;7.012;2022-07-25T02:34:11;1.10;;;1.10;;
9040;SDS011;4555;49.918;7.012;2022-07-25T02:36:36;0.87;;;0.87;;
9040;SDS011;4555;49.918;7.012;2022-07-25T02:39:02;1.20;;;1.20;;
9040;SDS011;4555;49.918;7.012;2022-07-25T02:41:28;1.50;;;1.50;;
9040;SDS011;4555;49.918;7.012;2022-07-25T02:43:54;1.20;;;1.20;;
9040;SDS011;4555;49.918;7.012;2022-07-25T02:46:19;1.20;;;1.10;;
9040;SDS011;4555;49.918;7.012;2022-07-25T02:48:45;1.23;;;1.10;;
9040;SDS011;4555;49.918;7.012;2022-07-25T02:51:11;1.30;;;1.30;;
9040;SDS011;4555;49.918;7.012;2022-07-25T02:53:37;1.67;;;1.20;;
9040;SDS011;4555;49.918;7.012;2022-07-25T02:56:02;1.37;;;1.27;;
9040;SDS011;4555;49.918;7.012;2022-07-25T02:58:28;1.23;;;1.13;;
9040;SDS011;4555;49.918;7.012;2022-07-25T03:00:54;1.80;;;1.70;;
9040;SDS011;4555;49.918;7.012;2022-07-25T03:03:20;0.97;;;0.97;;
9040;SDS011;4555;49.918;7.012;2022-07-25T03:05:45;1.03;;;1.03;;
9040;SDS011;4555;49.918;7.012;2022-07-25T03:08:11;0.97;;;0.97;;
9040;SDS011;4555;49.918;7.012;2022-07-25T03:10:37;0.93;;;0.93;;
9040;SDS011;4555;49.918;7.012;2022-07-25T03:13:02;1.03;;;1.03;;
9040;SDS011;4555;49.918;7.012;2022-07-25T03:15:28;0.97;;;0.97;;
9040;SDS011;4555;49.918;7.012;2022-07-25T03:17:54;2.43;;;1.33;;
9040;SDS011;4555;49.918;7.012;2022-07-25T03:20:19;0.87;;;0.83;;
9040;SDS011;4555;49.918;7.012;2022-07-25T03:22:45;1.10;;;1.10;;
9040;SDS011;4555;49.918;7.012;2022-07-25T03:25:10;1.40;;;1.30;;
9040;SDS011;4555;49.918;7.012;2022-07-25T03:27:36;1.30;;;1.30;;
9040;SDS011;4555;49.918;7.012;2022-07-25T03:30:02;1.13;;;1.13;;
9040;SDS011;4555;49.918;7.012;2022-07-25T03:32:28;1.27;;;1.07;;
9040;SDS011;4555;49.918;7.012;2022-07-25T03:34:54;1.40;;;1.30;;
9040;SDS011;4555;49.918;7.012;2022-07-25T03:37:19;1.00;;;1.00;;
9040;SDS011;4555;49.918;7.012;2022-07-25T03:39:45;1.03;;;1.00;;
9040;SDS011;4555;49.918;7.012;2022-07-25T03:42:11;1.03;;;1.03;;
9040;SDS011;4555;49.918;7.012;2022-07-25T03:44:39;0.77;;;0.77;;
9040;SDS011;4555;49.918;7.012;2022-07-25T03:47:05;1.20;;;1.10;;
9040;SDS011;4555;49.918;7.012;2022-07-25T03:49:31;1.23;;;1.17;;
9040;SDS011;4555;49.918;7.012;2022-07-25T03:51:57;1.40;;;1.30;;
9040;SDS011;4555;49.918;7.012;2022-07-25T03:54:23;1.13;;;1.13;;
9040;SDS011;4555;49.918;7.012;2022-07-25T03:56:49;2.77;;;1.53;;
9040;SDS011;4555;49.918;7.012;2022-07-25T03:59:16;1.23;;;1.23;;
9040;SDS011;4555;49.918;7.012;2022-07-25T04:01:44;0.90;;;0.90;;
9040;SDS011;4555;49.918;7.012;2022-07-25T04:04:10;1.10;;;1.10;;
9040;SDS011;4555;49.918;7.012;2022-07-25T04:06:37;1.33;;;1.33;;
9040;SDS011;4555;49.918;7.012;2022-07-25T04:09:03;1.07;;;1.07;;
9040;SDS011;4555;49.918;7.012;2022-07-25T04:11:29;0.83;;;0.83;;
9040;SDS011;4555;49.918;7.012;2022-07-25T04:13:55;1.00;;;1.00;;
9040;SDS011;4555;49.918;7.012;2022-07-25T04:16:21;1.23;;;1.23;;
9040;SDS011;4555;49.918;7.012;2022-07-25T04:18:47;1.30;;;1.23;;
9040;SDS011;4555;49.918;7.012;2022-07-25T04:21:13;1.03;;;1.03;;
9040;SDS011;4555;49.918;7.012;2022-07-25T04:23:39;1.13;;;1.13;;
9040;SDS011;4555;49.918;7.012;2022-07-25T04:26:04;1.20;;;1.17;;
9040;SDS011;4555;49.918;7.012;2022-07-25T04:28:30;0.77;;;0.77;;
9040;SDS011;4555;49.918;7.012;2022-07-25T04:30:56;1.10;;;1.10;;
9040;SDS011;4555;49.918;7.012;2022-07-25T04:33:22;1.20;;;1.20;;
9040;SDS011;4555;49.918;7.012;2022-07-25T04:35:48;1.00;;;1.00;;
9040;SDS011;4555;49.918;7.012;2022-07-25T04:38:14;1.33;;;1.33;;
9040;SDS011;4555;49.918;7.012;2022-07-25T04:40:40;1.47;;;1.47;;
9040;SDS011;4555;49.918;7.012;2022-07-25T04:43:06;0.93;;;0.93;;
9040;SDS011;4555;49.918;7.012;2022-07-25T04:45:32;1.17;;;1.13;;
9040;SDS011;4555;49.918;7.012;2022-07-25T04:47:59;0.63;;;0.63;;
9040;SDS011;4555;49.918;7.012;2022-07-25T04:50:25;0.77;;;0.77;;
9040;SDS011;4555;49.918;7.012;2022-07-25T04:52:51;1.30;;;1.17;;
9040;SDS011;4555;49.918;7.012;2022-07-25T04:55:17;1.60;;;1.50;;
9040;SDS011;4555;49.918;7.012;2022-07-25T04:57:43;1.70;;;1.60;;
9040;SDS011;4555;49.918;7.012;2022-07-25T05:00:09;1.40;;;1.33;;
9040;SDS011;4555;49.918;7.012;2022-07-25T05:02:35;1.10;;;1.10;;
9040;SDS011;4555;49.918;7.012;2022-07-25T05:05:01;1.07;;;0.83;;
9040;SDS011;4555;49.918;7.012;2022-07-25T05:07:27;1.23;;;1.23;;
9040;SDS011;4555;49.918;7.012;2022-07-25T05:09:53;1.70;;;1.47;;
9040;SDS011;4555;49.918;7.012;2022-07-25T05:12:19;1.20;;;1.20;;
9040;SDS011;4555;49.918;7.012;2022-07-25T05:14:44;1.20;;;1.20;;
9040;SDS011;4555;49.918;7.012;2022-07-25T05:17:10;1.90;;;1.33;;
9040;SDS011;4555;49.918;7.012;2022-07-25T05:19:36;1.07;;;1.07;;
9040;SDS011;4555;49.918;7.012;2022-07-25T05:22:02;1.30;;;1.20;;
9040;SDS011;4555;49.918;7.012;2022-07-25T05:24:28;0.80;;;0.80;;
9040;SDS011;4555;49.918;7.012;2022-07-25T05:27:00;1.60;;;1.50;;
9040;SDS011;4555;49.918;7.012;2022-07-25T05:29:26;1.47;;;1.40;;
9040;SDS011;4555;49.918;7.012;2022-07-25T05:31:52;1.50;;;0.97;;
9040;SDS011;4555;49.918;7.012;2022-07-25T05:34:18;2.23;;;1.60;;
9040;SDS011;4555;49.918;7.012;2022-07-25T05:36:44;1.80;;;1.70;;
9040;SDS011;4555;49.918;7.012;2022-07-25T05:39:13;1.53;;;1.43;;
9040;SDS011;4555;49.918;7.012;2022-07-25T05:41:39;2.30;;;2.00;;
9040;SDS011;4555;49.918;7.012;2022-07-25T05:44:05;1.80;;;1.70;;
9040;SDS011;4555;49.918;7.012;2022-07-25T05:46:31;1.73;;;1.63;;
9040;SDS011;4555;49.918;7.012;2022-07-25T05:48:57;1.73;;;1.67;;
9040;SDS011;4555;49.918;7.012;2022-07-25T05:51:22;1.70;;;1.70;;
9040;SDS011;4555;49.918;7.012;2022-07-25T05:53:48;1.67;;;1.63;;
9040;SDS011;4555;49.918;7.012;2022-07-25T05:56:14;1.63;;;1.57;;
9040;SDS011;4555;49.918;7.012;2022-07-25T05:58:39;1.60;;;1.50;;
9040;SDS011;4555;49.918;7.012;2022-07-25T06:01:06;1.30;;;1.30;;
9040;SDS011;4555;49.918;7.012;2022-07-25T06:03:35;1.73;;;1.63;;
9040;SDS011;4555;49.918;7.012;2022-07-25T06:06:01;1.73;;;1.63;;
9040;SDS011;4555;49.918;7.012;2022-07-25T06:08:26;1.73;;;1.53;;
9040;SDS011;4555;49.918;7.012;2022-07-25T06:10:58;1.70;;;1.60;;
9040;SDS011;4555;49.918;7.012;2022-07-25T06:13:27;1.83;;;1.73;;
9040;SDS011;4555;49.918;7.012;2022-07-25T06:15:53;2.00;;;1.90;;
9040;SDS011;4555;49.918;7.012;2022-07-25T06:18:19;2.13;;;2.03;;
9040;SDS011;4555;49.918;7.012;2022-07-25T06:20:44;2.03;;;1.93;;
9040;SDS011;4555;49.918;7.012;2022-07-25T06:23:10;1.40;;;1.40;;
9040;SDS011;4555;49.918;7.012;2022-07-25T06:25:36;2.33;;;1.90;;
9040;SDS011;4555;49.918;7.012;2022-07-25T06:28:01;1.40;;;1.40;;
9040;SDS011;4555;49.918;7.012;2022-07-25T06:30:27;2.37;;;2.20;;
9040;SDS011;4555;49.918;7.012;2022-07-25T06:32:53;2.10;;;1.93;;
9040;SDS011;4555;49.918;7.012;2022-07-25T06:35:19;1.60;;;1.50;;
9040;SDS011;4555;49.918;7.012;2022-07-25T06:37:44;1.67;;;1.57;;
9040;SDS011;4555;49.918;7.012;2022-07-25T06:40:10;1.73;;;1.63;;
9040;SDS011;4555;49.918;7.012;2022-07-25T06:42:40;1.63;;;1.53;;
9040;SDS011;4555;49.918;7.012;2022-07-25T06:45:07;1.93;;;1.83;;
9040;SDS011;4555;49.918;7.012;2022-07-25T06:47:35;1.83;;;1.73;;
9040;SDS011;4555;49.918;7.012;2022-07-25T06:50:03;2.00;;;1.90;;
9040;SDS011;4555;49.918;7.012;2022-07-25T06:52:30;1.83;;;1.73;;
9040;SDS011;4555;49.918;7.012;2022-07-25T06:54:56;1.57;;;1.47;;
9040;SDS011;4555;49.918;7.012;2022-07-25T06:57:21;1.90;;;1.80;;
9040;SDS011;4555;49.918;7.012;2022-07-25T06:59:47;2.10;;;2.00;;
9040;SDS011;4555;49.918;7.012;2022-07-25T07:02:13;1.80;;;1.70;;
9040;SDS011;4555;49.918;7.012;2022-07-25T07:04:38;1.80;;;1.70;;
9040;SDS011;4555;49.918;7.012;2022-07-25T07:07:04;1.80;;;1.77;;
9040;SDS011;4555;49.918;7.012;2022-07-25T07:09:30;1.73;;;1.60;;
9040;SDS011;4555;49.918;7.012;2022-07-25T07:11:56;1.47;;;1.47;;
9040;SDS011;4555;49.918;7.012;2022-07-25T07:14:22;1.57;;;1.57;;
9040;SDS011;4555;49.918;7.012;2022-07-25T07:16:47;2.00;;;1.90;;
9040;SDS011;4555;49.918;7.012;2022-07-25T07:19:13;2.10;;;2.00;;
9040;SDS011;4555;49.918;7.012;2022-07-25T07:21:39;1.37;;;1.30;;
9040;SDS011;4555;49.918;7.012;2022-07-25T07:24:06;1.67;;;1.57;;
9040;SDS011;4555;49.918;7.012;2022-07-25T07:26:33;1.90;;;1.80;;
9040;SDS011;4555;49.918;7.012;2022-07-25T07:28:58;2.03;;;1.93;;
9040;SDS011;4555;49.918;7.012;2022-07-25T07:31:25;2.10;;;1.80;;
9040;SDS011;4555;49.918;7.012;2022-07-25T07:33:51;1.70;;;1.63;;
9040;SDS011;4555;49.918;7.012;2022-07-25T07:36:16;2.03;;;1.93;;
9040;SDS011;4555;49.918;7.012;2022-07-25T07:38:42;2.60;;;2.00;;
9040;SDS011;4555;49.918;7.012;2022-07-25T07:41:12;2.00;;;1.80;;
9040;SDS011;4555;49.918;7.012;2022-07-25T07:43:38;1.83;;;1.73;;
9040;SDS011;4555;49.918;7.012;2022-07-25T07:46:04;2.13;;;1.87;;
9040;SDS011;4555;49.918;7.012;2022-07-25T07:48:30;1.70;;;1.60;;
9040;SDS011;4555;49.918;7.012;2022-07-25T07:50:57;1.87;;;1.77;;
9040;SDS011;4555;49.918;7.012;2022-07-25T07:53:24;1.83;;;1.73;;
9040;SDS011;4555;49.918;7.012;2022-07-25T07:56:09;2.57;;;1.90;;
9040;SDS011;4555;49.918;7.012;2022-07-25T07:58:36;1.97;;;1.87;;
9040;SDS011;4555;49.918;7.012;2022-07-25T08:01:02;2.00;;;1.93;;
9040;SDS011;4555;49.918;7.012;2022-07-25T08:03:29;2.10;;;2.00;;
9040;SDS011;4555;49.918;7.012;2022-07-25T08:05:55;2.00;;;1.90;;
9040;SDS011;4555;49.918;7.012;2022-07-25T08:08:20;1.60;;;1.50;;
9040;SDS011;4555;49.918;7.012;2022-07-25T08:10:46;3.40;;;2.03;;
9040;SDS011;4555;49.918;7.012;2022-07-25T08:15:53;2.60;;;2.40;;
9040;SDS011;4555;49.918;7.012;2022-07-25T08:18:22;2.37;;;2.10;;
9040;SDS011;4555;49.918;7.012;2022-07-25T08:20:48;1.90;;;1.80;;
9040;SDS011;4555;49.918;7.012;2022-07-25T08:23:14;1.80;;;1.70;;
9040;SDS011;4555;49.918;7.012;2022-07-25T08:25:40;1.77;;;1.67;;
9040;SDS011;4555;49.918;7.012;2022-07-25T08:28:07;1.97;;;1.87;;
9040;SDS011;4555;49.918;7.012;2022-07-25T08:30:33;1.77;;;1.67;;
9040;SDS011;4555;49.918;7.012;2022-07-25T08:33:00;1.90;;;1.80;;
9040;SDS011;4555;49.918;7.012;2022-07-25T08:35:28;1.80;;;1.73;;
9040;SDS011;4555;49.918;7.012;2022-07-25T08:37:55;3.80;;;1.93;;
9040;SDS011;4555;49.918;7.012;2022-07-25T08:40:22;2.13;;;2.03;;
9040;SDS011;4555;49.918;7.012;2022-07-25T08:42:49;1.95;;;1.85;;
9040;SDS011;4555;49.918;7.012;2022-07-25T08:45:16;2.13;;;2.03;;
9040;SDS011;4555;49.918;7.012;2022-07-25T08:47:43;1.95;;;1.83;;
9040;SDS011;4555;49.918;7.012;2022-07-25T08:50:11;1.80;;;1.70;;
9040;SDS011;4555;49.918;7.012;2022-07-25T08:52:38;1.90;;;1.80;;
9040;SDS011;4555;49.918;7.012;2022-07-25T08:55:07;1.98;;;1.88;;
9040;SDS011;4555;49.918;7.012;2022-07-25T08:57:35;1.98;;;1.88;;
9040;SDS011;4555;49.918;7.012;2022-07-25T09:00:05;2.13;;;2.03;;
9040;SDS011;4555;49.918;7.012;2022-07-25T09:02:32;2.00;;;1.90;;
9040;SDS011;4555;49.918;7.012;2022-07-25T09:04:58;1.48;;;1.48;;
9040;SDS011;4555;49.918;7.012;2022-07-25T09:07:39;1.90;;;1.80;;
9040;SDS011;4555;49.918;7.012;2022-07-25T09:10:16;1.80;;;1.70;;
9040;SDS011;4555;49.918;7.012;2022-07-25T09:15:23;1.80;;;1.70;;
9040;SDS011;4555;49.918;7.012;2022-07-25T09:17:54;1.70;;;1.60;;
9040;SDS011;4555;49.918;7.012;2022-07-25T09:20:21;2.20;;;2.10;;
9040;SDS011;4555;49.918;7.012;2022-07-25T09:22:47;1.88;;;1.77;;
9040;SDS011;4555;49.918;7.012;2022-07-25T09:25:24;1.65;;;1.55;;
9040;SDS011;4555;49.918;7.012;2022-07-25T09:27:51;3.58;;;1.85;;
9040;SDS011;4555;49.918;7.012;2022-07-25T09:30:17;1.60;;;1.50;;
9040;SDS011;4555;49.918;7.012;2022-07-25T09:32:43;1.67;;;1.63;;
9040;SDS011;4555;49.918;7.012;2022-07-25T09:35:09;2.33;;;2.23;;
9040;SDS011;4555;49.918;7.012;2022-07-25T09:37:35;1.93;;;1.83;;
9040;SDS011;4555;49.918;7.012;2022-07-25T09:40:10;2.40;;;2.20;;
9040;SDS011;4555;49.918;7.012;2022-07-25T09:42:38;1.57;;;1.57;;
9040;SDS011;4555;49.918;7.012;2022-07-25T09:47:48;2.30;;;1.80;;
9040;SDS011;4555;49.918;7.012;2022-07-25T09:50:18;1.50;;;1.40;;
9040;SDS011;4555;49.918;7.012;2022-07-25T09:52:45;1.90;;;1.80;;
9040;SDS011;4555;49.918;7.012;2022-07-25T09:55:11;1.67;;;1.60;;
9040;SDS011;4555;49.918;7.012;2022-07-25T09:57:38;1.63;;;1.63;;
9040;SDS011;4555;49.918;7.012;2022-07-25T10:00:05;2.23;;;1.57;;
9040;SDS011;4555;49.918;7.012;2022-07-25T10:07:49;2.07;;;1.90;;
9040;SDS011;4555;49.918;7.012;2022-07-25T10:10:29;1.53;;;1.50;;
9040;SDS011;4555;49.918;7.012;2022-07-25T10:15:26;2.27;;;2.00;;
9040;SDS011;4555;49.918;7.012;2022-07-25T10:18:03;1.70;;;1.60;;
9040;SDS011;4555;49.918;7.012;2022-07-25T10:20:30;1.83;;;1.73;;
9040;SDS011;4555;49.918;7.012;2022-07-25T10:22:56;1.73;;;1.63;;
9040;SDS011;4555;49.918;7.012;2022-07-25T10:25:25;1.93;;;1.83;;
9040;SDS011;4555;49.918;7.012;2022-07-25T10:27:51;2.07;;;1.80;;
9040;SDS011;4555;49.918;7.012;2022-07-25T10:30:26;2.05;;;1.90;;
9040;SDS011;4555;49.918;7.012;2022-07-25T10:36:05;1.88;;;1.77;;
9040;SDS011;4555;49.918;7.012;2022-07-25T10:38:31;2.13;;;2.00;;
9040;SDS011;4555;49.918;7.012;2022-07-25T10:40:59;1.80;;;1.70;;
9040;SDS011;4555;49.918;7.012;2022-07-25T10:43:26;1.80;;;1.70;;
9040;SDS011;4555;49.918;7.012;2022-07-25T10:45:54;1.90;;;1.80;;
9040;SDS011;4555;49.918;7.012;2022-07-25T10:56:03;2.03;;;1.93;;
9040;SDS011;4555;49.918;7.012;2022-07-25T10:58:47;1.83;;;1.57;;
9040;SDS011;4555;49.918;7.012;2022-07-25T11:01:19;1.90;;;1.80;;
9040;SDS011;4555;49.918;7.012;2022-07-25T11:03:45;1.83;;;1.73;;
9040;SDS011;4555;49.918;7.012;2022-07-25T11:06:11;2.00;;;1.90;;
9040;SDS011;4555;49.918;7.012;2022-07-25T11:08:39;2.07;;;1.97;;
9040;SDS011;4555;49.918;7.012;2022-07-25T11:11:05;1.87;;;1.77;;
9040;SDS011;4555;49.918;7.012;2022-07-25T11:13:35;2.77;;;1.80;;
9040;SDS011;4555;49.918;7.012;2022-07-25T11:16:02;1.47;;;1.47;;
9040;SDS011;4555;49.918;7.012;2022-07-25T11:18:32;2.27;;;2.10;;
9040;SDS011;4555;49.918;7.012;2022-07-25T11:21:03;2.10;;;2.00;;
9040;SDS011;4555;49.918;7.012;2022-07-25T11:23:30;1.70;;;1.60;;
9040;SDS011;4555;49.918;7.012;2022-07-25T11:26:10;1.50;;;1.50;;
9040;SDS011;4555;49.918;7.012;2022-07-25T11:28:37;1.90;;;1.80;;
9040;SDS011;4555;49.918;7.012;2022-07-25T11:31:04;1.63;;;1.53;;
9040;SDS011;4555;49.918;7.012;2022-07-25T11:33:30;2.50;;;1.60;;
9040;SDS011;4555;49.918;7.012;2022-07-25T11:35:56;1.43;;;1.40;;
9040;SDS011;4555;49.918;7.012;2022-07-25T11:38:23;1.93;;;1.77;;
9040;SDS011;4555;49.918;7.012;2022-07-25T11:40:49;2.33;;;2.03;;
9040;SDS011;4555;49.918;7.012;2022-07-25T11:43:22;2.00;;;1.90;;
9040;SDS011;4555;49.918;7.012;2022-07-25T11:45:55;2.10;;;2.00;;
9040;SDS011;4555;49.918;7.012;2022-07-25T11:48:33;4.33;;;1.93;;
9040;SDS011;4555;49.918;7.012;2022-07-25T11:51:11;1.67;;;1.60;;
9040;SDS011;4555;49.918;7.012;2022-07-25T11:53:45;2.27;;;2.17;;
9040;SDS011;4555;49.918;7.012;2022-07-25T11:56:12;2.10;;;2.00;;
9040;SDS011;4555;49.918;7.012;2022-07-25T11:58:41;1.77;;;1.67;;
9040;SDS011;4555;49.918;7.012;2022-07-25T12:01:11;1.70;;;1.60;;
9040;SDS011;4555;49.918;7.012;2022-07-25T12:03:38;1.43;;;1.40;;
9040;SDS011;4555;49.918;7.012;2022-07-25T12:06:08;1.80;;;1.70;;
9040;SDS011;4555;49.918;7.012;2022-07-25T12:08:40;1.93;;;1.83;;
9040;SDS011;4555;49.918;7.012;2022-07-25T12:11:16;1.33;;;1.33;;
9040;SDS011;4555;49.918;7.012;2022-07-25T12:13:43;1.57;;;1.57;;
9040;SDS011;4555;49.918;7.012;2022-07-25T12:16:08;1.87;;;1.77;;
9040;SDS011;4555;49.918;7.012;2022-07-25T12:18:34;1.70;;;1.60;;
9040;SDS011;4555;49.918;7.012;2022-07-25T12:21:02;1.47;;;1.47;;
9040;SDS011;4555;49.918;7.012;2022-07-25T12:23:28;1.63;;;1.63;;
9040;SDS011;4555;49.918;7.012;2022-07-25T12:25:54;1.67;;;1.57;;
9040;SDS011;4555;49.918;7.012;2022-07-25T12:28:20;1.70;;;1.60;;
9040;SDS011;4555;49.918;7.012;2022-07-25T12:30:45;1.70;;;1.60;;
9040;SDS011;4555;49.918;7.012;2022-07-25T12:33:12;3.00;;;1.87;;
9040;SDS011;4555;49.918;7.012;2022-07-25T12:35:42;1.87;;;1.77;;
9040;SDS011;4555;49.918;7.012;2022-07-25T12:38:08;1.57;;;1.57;;
9040;SDS011;4555;49.918;7.012;2022-07-25T12:40:35;1.83;;;1.73;;
9040;SDS011;4555;49.918;7.012;2022-07-25T12:43:02;1.77;;;1.73;;
9040;SDS011;4555;49.918;7.012;2022-07-25T12:45:28;1.60;;;1.50;;
9040;SDS011;4555;49.918;7.012;2022-07-25T12:47:54;1.80;;;1.70;;
9040;SDS011;4555;49.918;7.012;2022-07-25T12:50:20;1.83;;;1.73;;
9040;SDS011;4555;49.918;7.012;2022-07-25T12:52:49;1.60;;;1.50;;
9040;SDS011;4555;49.918;7.012;2022-07-25T12:55:16;2.10;;;2.00;;
9040;SDS011;4555;49.918;7.012;2022-07-25T12:57:43;1.73;;;1.63;;
9040;SDS011;4555;49.918;7.012;2022-07-25T13:00:10;1.87;;;1.77;;
9040;SDS011;4555;49.918;7.012;2022-07-25T13:02:38;1.70;;;1.60;;
9040;SDS011;4555;49.918;7.012;2022-07-25T13:05:04;2.40;;;2.23;;
9040;SDS011;4555;49.918;7.012;2022-07-25T13:07:31;1.83;;;1.73;;
9040;SDS011;4555;49.918;7.012;2022-07-25T13:09:57;1.80;;;1.70;;
9040;SDS011;4555;49.918;7.012;2022-07-25T13:12:23;1.90;;;1.80;;
9040;SDS011;4555;49.918;7.012;2022-07-25T13:14:49;2.03;;;1.93;;
9040;SDS011;4555;49.918;7.012;2022-07-25T13:17:15;1.90;;;1.80;;
9040;SDS011;4555;49.918;7.012;2022-07-25T13:19:40;2.03;;;1.93;;
9040;SDS011;4555;49.918;7.012;2022-07-25T13:22:06;1.60;;;1.50;;
9040;SDS011;4555;49.918;7.012;2022-07-25T13:24:32;2.43;;;2.27;;
9040;SDS011;4555;49.918;7.012;2022-07-25T13:27:01;1.58;;;1.48;;
9040;SDS011;4555;49.918;7.012;2022-07-25T13:29:27;1.30;;;1.30;;
9040;SDS011;4555;49.918;7.012;2022-07-25T13:31:53;1.80;;;1.70;;
9040;SDS011;4555;49.918;7.012;2022-07-25T13:34:19;1.97;;;1.87;;
9040;SDS011;4555;49.918;7.012;2022-07-25T13:36:45;2.07;;;1.90;;
9040;SDS011;4555;49.918;7.012;2022-07-25T13:39:11;2.30;;;2.20;;
9040;SDS011;4555;49.918;7.012;2022-07-25T13:41:36;2.20;;;1.67;;
9040;SDS011;4555;49.918;7.012;2022-07-25T13:44:02;1.67;;;1.67;;
9040;SDS011;4555;49.918;7.012;2022-07-25T13:46:28;2.03;;;1.92;;
9040;SDS011;4555;49.918;7.012;2022-07-25T13:48:54;1.55;;;1.50;;
9040;SDS011;4555;49.918;7.012;2022-07-25T13:51:20;2.10;;;1.90;;
9040;SDS011;4555;49.918;7.012;2022-07-25T13:53:46;2.38;;;1.90;;
9040;SDS011;4555;49.918;7.012;2022-07-25T13:56:11;1.98;;;1.88;;
9040;SDS011;4555;49.918;7.012;2022-07-25T13:58:38;1.80;;;1.70;;
9040;SDS011;4555;49.918;7.012;2022-07-25T14:01:04;1.90;;;1.80;;
9040;SDS011;4555;49.918;7.012;2022-07-25T14:03:31;1.60;;;1.50;;
9040;SDS011;4555;49.918;7.012;2022-07-25T14:05:57;1.48;;;1.48;;
9040;SDS011;4555;49.918;7.012;2022-07-25T14:08:23;1.35;;;1.35;;
9040;SDS011;4555;49.918;7.012;2022-07-25T14:10:50;1.60;;;1.50;;
9040;SDS011;4555;49.918;7.012;2022-07-25T14:13:16;1.55;;;1.45;;
9040;SDS011;4555;49.918;7.012;2022-07-25T14:15:42;1.77;;;1.67;;
9040;SDS011;4555;49.918;7.012;2022-07-25T14:18:09;1.70;;;1.60;;
9040;SDS011;4555;49.918;7.012;2022-07-25T14:20:35;1.83;;;1.73;;
9040;SDS011;4555;49.918;7.012;2022-07-25T14:23:01;1.53;;;1.53;;
9040;SDS011;4555;49.918;7.012;2022-07-25T14:25:26;1.70;;;1.60;;
9040;SDS011;4555;49.918;7.012;2022-07-25T14:27:52;1.60;;;1.60;;
9040;SDS011;4555;49.918;7.012;2022-07-25T14:30:18;1.40;;;1.40;;
9040;SDS011;4555;49.918;7.012;2022-07-25T14:32:44;2.13;;;1.70;;
9040;SDS011;4555;49.918;7.012;2022-07-25T14:35:09;1.57;;;1.47;;
9040;SDS011;4555;49.918;7.012;2022-07-25T14:37:35;1.30;;;1.23;;
9040;SDS011;4555;49.918;7.012;2022-07-25T14:40:02;1.47;;;1.37;;
9040;SDS011;4555;49.918;7.012;2022-07-25T14:42:29;1.60;;;1.57;;
9040;SDS011;4555;49.918;7.012;2022-07-25T14:44:55;1.33;;;1.27;;
9040;SDS011;4555;49.918;7.012;2022-07-25T14:47:20;1.47;;;1.47;;
9040;SDS011;4555;49.918;7.012;2022-07-25T14:49:46;0.70;;;0.70;;
9040;SDS011;4555;49.918;7.012;2022-07-25T14:52:12;1.37;;;1.27;;
9040;SDS011;4555;49.918;7.012;2022-07-25T14:54:39;1.23;;;1.13;;
9040;SDS011;4555;49.918;7.012;2022-07-25T14:57:06;1.30;;;1.30;;
9040;SDS011;4555;49.918;7.012;2022-07-25T14:59:33;0.77;;;0.77;;
9040;SDS011;4555;49.918;7.012;2022-07-25T15:01:58;0.97;;;0.83;;
9040;SDS011;4555;49.918;7.012;2022-07-25T15:04:24;1.00;;;1.00;;
9040;SDS011;4555;49.918;7.012;2022-07-25T15:06:50;0.70;;;0.70;;
9040;SDS011;4555;49.918;7.012;2022-07-25T15:09:17;0.80;;;0.80;;
9040;SDS011;4555;49.918;7.012;2022-07-25T15:11:44;1.00;;;1.00;;
9040;SDS011;4555;49.918;7.012;2022-07-25T15:14:09;0.83;;;0.83;;
9040;SDS011;4555;49.918;7.012;2022-07-25T15:16:36;0.70;;;0.70;;
9040;SDS011;4555;49.918;7.012;2022-07-25T15:19:02;0.90;;;0.90;;
9040;SDS011;4555;49.918;7.012;2022-07-25T15:21:29;0.63;;;0.63;;
9040;SDS011;4555;49.918;7.012;2022-07-25T15:23:55;0.70;;;0.70;;
9040;SDS011;4555;49.918;7.012;2022-07-25T15:26:21;0.90;;;0.90;;
9040;SDS011;4555;49.918;7.012;2022-07-25T15:28:47;1.17;;;0.80;;
9040;SDS011;4555;49.918;7.012;2022-07-25T15:31:13;0.83;;;0.50;;
9040;SDS011;4555;49.918;7.012;2022-07-25T15:33:38;0.57;;;0.57;;
9040;SDS011;4555;49.918;7.012;2022-07-25T15:36:04;0.87;;;0.87;;
9040;SDS011;4555;49.918;7.012;2022-07-25T15:38:30;0.80;;;0.80;;